Latest Weather Observations for St Helens

IDT60801

Issued at 11:32 pm EDT Thursday 19 January 2017 (issued every 30 minutes, with the page automatically refreshed every 10 minutes)

About weather observations | Map of weather stations | Latest weather observations for TAS | Other Formats
Station Details ID: 092120 Name: ST HELENS AERODROME Lat: -41.34 Lon: 148.28 Height: 48.0 m
Data from the previous 72 hours. | See also: Recent months at St Helens
Date/Time
EDT
Temp
°C
App
Temp
°C
Dew
Point
°C
Rel
Hum
%
Delta-T
°C
Wind Press
QNH
hPa
Press
MSL
hPa
Rain since
9am
mm
Dir  Spd
km/h
Gust
km/h
Spd
kts
Gust
kts
19/11:30pm 14.8 12.0 8.7 67 3.1 NE 13 19 7 10 1008.9 - 0.0
19/11:00pm 14.8 12.2 9.2 69 2.9 NE 13 19 7 10 1009.2 - 0.0
19/10:30pm 14.6 11.7 8.3 66 3.2 NE 13 17 7 9 1010.0 - 0.0
19/10:00pm 14.5 11.6 8.0 65 3.2 NE 13 17 7 9 1010.8 - 0.0
19/09:30pm 14.4 11.7 7.5 63 3.4 NE 11 13 6 7 1011.3 - 0.0
19/09:00pm 14.8 12.6 7.8 63 3.5 NNE 9 13 5 7 1011.8 1011.6 0.0
19/08:30pm 15.1 12.8 7.6 61 3.7 NNE 9 15 5 8 1012.0 - 0.0
19/08:00pm 15.4 12.8 7.7 60 3.8 NNE 11 17 6 9 1012.3 - 0.0
19/07:30pm 15.6 13.1 8.4 62 3.7 NE 11 13 6 7 1012.6 - 0.0
19/07:00pm 15.6 12.8 8.4 62 3.7 ENE 13 17 7 9 1012.7 - 0.0
19/06:30pm 15.6 12.6 7.9 60 3.9 ENE 13 19 7 10 1012.5 - 0.0
19/06:00pm 15.8 12.8 7.6 58 4.1 ENE 13 19 7 10 1013.1 1012.9 0.0
19/05:30pm 15.6 12.1 7.4 58 4.1 E 15 20 8 11 1012.9 - 0.0
19/05:00pm 15.7 12.2 7.2 57 4.2 E 15 22 8 12 1013.3 - 0.0
19/04:30pm 16.2 12.4 7.4 56 4.4 E 17 24 9 13 1014.1 - 0.0
19/04:00pm 16.4 12.9 7.3 55 4.5 E 15 26 8 14 1014.6 - 0.0
19/03:30pm 16.1 13.0 7.3 56 4.4 E 13 26 7 14 1014.9 - 0.0
19/03:00pm 16.2 13.4 6.9 54 4.6 ESE 11 19 6 10 1015.2 1015.1 0.0
19/02:30pm 17.9 14.6 7.9 52 5.1 ESE 15 26 8 14 1015.3 - 0.0
19/02:00pm 16.0 11.9 6.2 52 4.8 ESE 17 30 9 16 1015.7 - 0.0
19/01:30pm 17.2 13.2 6.7 50 5.2 E 17 26 9 14 1015.9 - 0.0
19/01:00pm 17.3 13.2 6.2 48 5.4 ESE 17 30 9 16 1016.3 - 0.0
19/12:30pm 17.5 14.1 6.1 47 5.6 SE 13 28 7 15 1016.7 - 0.0
19/12:00pm 16.6 12.8 5.6 48 5.3 SE 15 26 8 14 1016.9 1016.8 0.0
19/11:30am 16.9 13.3 5.2 46 5.6 SE 13 28 7 15 1017.1 - 0.0
19/11:00am 15.9 11.1 4.9 48 5.2 SSE 19 32 10 17 1017.3 - 0.0
19/10:30am 15.5 10.4 3.3 44 5.6 SSE 19 32 10 17 1017.5 - 0.0
19/10:00am 14.8 10.1 3.3 46 5.2 SSE 17 30 9 16 1017.6 - 0.0
19/09:30am 14.8 10.2 3.6 47 5.1 S 17 28 9 15 1017.6 - 0.0
19/09:00am 14.9 10.8 4.3 49 4.9 S 15 26 8 14 1017.7 1017.6 0.0
19/08:30am 13.5 8.5 3.6 51 4.5 S 19 32 10 17 1017.8 - 0.0
19/08:00am 12.9 9.5 4.1 55 4.0 S 11 19 6 10 1017.6 - 0.0
19/07:30am 11.0 9.1 5.1 67 2.7 SW 4 9 2 5 1017.3 - 0.0
19/07:00am 10.3 7.3 4.0 65 2.8 SSW 9 13 5 7 1017.1 - 0.0
19/06:30am 8.5 6.5 6.1 85 1.1 W 6 9 3 5 1017.0 - 0.0
19/06:00am 8.0 5.8 6.0 87 0.9 NW 7 15 4 8 1016.6 1016.5 0.0
19/05:30am 8.3 5.2 3.6 72 2.0 SSW 9 13 5 7 1016.3 - 0.0
19/05:00am 8.9 7.6 6.0 82 1.3 WNW 2 9 1 5 1016.3 - 0.0
19/04:30am 9.6 7.0 3.4 65 2.7 WSW 6 7 3 4 1016.1 - 0.0
19/04:00am 9.4 6.1 2.7 63 2.9 S 9 13 5 7 1016.1 - 0.0
19/03:30am 9.4 6.1 2.7 63 2.9 S 9 11 5 6 1016.1 - 0.0
19/03:00am 9.9 6.6 2.7 61 3.1 S 9 13 5 7 1016.2 1016.1 0.0
19/02:30am 10.5 7.2 2.6 58 3.4 S 9 13 5 7 1016.2 - 0.0
19/02:00am 10.9 7.6 2.7 57 3.5 S 9 13 5 7 1016.2 - 0.0
19/01:30am 11.5 8.7 3.0 56 3.7 SSW 7 11 4 6 1016.1 - 0.0
19/01:00am 11.0 8.9 5.7 70 2.5 S 6 11 3 6 1016.1 - 0.0
19/12:30am 11.8 9.4 8.8 82 1.5 NNW 11 15 6 8 1016.1 - 0.0
19/12:00am 13.0 11.8 8.1 72 2.4 NNW 4 9 2 5 1015.9 1015.8 0.0
 
Date/Time
EDT
Temp
°C
App
Temp
°C
Dew
Point
°C
Rel
Hum
%
Delta-T
°C
Wind Press
QNH
hPa
Press
MSL
hPa
Rain since
9am
mm
Dir  Spd
km/h
Gust
km/h
Spd
kts
Gust
kts
18/11:30pm 13.0 11.2 8.1 72 2.4 SSW 7 15 4 8 1015.8 - 0.0
18/11:00pm 14.3 11.3 7.6 64 3.3 SSE 13 19 7 10 1015.7 - 0.0
18/10:30pm 14.6 12.6 8.5 67 3.1 SE 9 17 5 9 1015.7 - 0.0
18/10:00pm 14.6 12.6 8.5 67 3.1 ESE 9 17 5 9 1015.6 - 0.0
18/09:30pm 14.6 12.4 7.9 64 3.3 ESE 9 13 5 7 1015.4 - 0.0
18/09:00pm 15.0 12.8 7.8 62 3.6 SE 9 19 5 10 1015.1 1015.0 0.0
18/08:30pm 15.3 13.1 7.8 61 3.8 SE 9 15 5 8 1014.6 - 0.0
18/08:00pm 16.3 14.1 8.0 58 4.2 SSE 9 17 5 9 1014.2 - 0.0
18/07:30pm 17.1 14.5 7.7 54 4.7 E 11 17 6 9 1013.5 - 0.0
18/07:00pm 17.5 14.8 7.5 52 5.0 E 11 17 6 9 1013.0 - 0.0
18/06:30pm 17.8 14.7 7.2 50 5.3 E 13 20 7 11 1012.6 - 0.0
18/06:00pm 18.5 15.1 7.6 49 5.5 E 15 20 8 11 1012.2 1012.0 0.0
18/05:30pm 18.8 14.7 6.3 44 6.2 ENE 17 26 9 14 1011.9 - 0.0
18/05:00pm 20.0 16.0 6.7 42 6.7 E 17 28 9 15 1011.2 - 0.0
18/04:30pm 19.3 14.6 7.7 47 5.9 E 22 32 12 17 1010.9 - 0.0
18/04:00pm 19.5 15.1 7.6 46 6.1 E 20 33 11 18 1010.4 - 0.0
18/03:30pm 19.7 15.2 6.1 41 6.8 SE 19 30 10 16 1010.2 - 0.0
18/03:00pm 20.7 16.0 5.9 38 7.4 ESE 20 33 11 18 1009.8 1009.6 0.0
18/02:30pm 22.0 16.2 -1.3 21 10.2 S 19 43 10 23 1009.6 - 0.0
18/02:00pm 22.9 17.7 0.1 22 10.4 SSW 17 32 9 17 1009.5 - 0.0
18/01:30pm 22.5 17.9 1.5 25 9.8 SW 15 28 8 15 1009.1 - 0.0
18/01:00pm 21.7 15.8 1.4 26 9.4 SW 22 35 12 19 1008.7 - 0.0
18/12:30pm 21.4 14.3 1.1 26 9.3 SW 28 54 15 29 1008.3 - 0.0
18/12:29pm 21.4 14.3 1.1 26 9.3 SW 28 54 15 29 1008.5 - 0.0
18/12:00pm 20.7 14.9 2.5 30 8.5 SSW 22 35 12 19 1007.9 1007.8 0.0
18/11:30am 21.3 16.8 4.4 33 8.2 S 17 33 9 18 1007.6 - 0.0
18/11:00am 20.4 14.8 3.6 33 8.0 SW 22 32 12 17 1007.3 - 0.0
18/10:30am 19.7 15.0 3.0 33 7.8 SW 17 28 9 15 1006.8 - 0.0
18/10:00am 20.2 15.7 4.3 35 7.7 SW 17 28 9 15 1006.3 - 0.0
18/09:30am 18.9 14.8 4.3 38 7.0 SW 15 28 8 15 1006.1 - 0.0
18/09:00am 18.0 11.6 3.1 37 6.9 SSW 26 43 14 23 1005.7 1005.6 0.0
18/08:30am 18.1 14.3 5.7 44 6.1 SSW 15 30 8 16 1005.3 - 0.0
18/08:00am 17.8 16.1 7.5 51 5.2 W 6 9 3 5 1004.9 - 0.0
18/07:30am 16.7 16.0 8.4 58 4.2 NNW 2 7 1 4 1004.2 - 0.0
18/07:00am 15.6 14.0 8.8 64 3.5 ENE 7 11 4 6 1003.6 - 0.0
18/06:30am 14.1 12.8 9.3 73 2.5 SW 6 11 3 6 1002.9 - 0.0
18/06:00am 15.1 13.1 10.1 72 2.6 WNW 11 17 6 9 1002.3 1002.2 0.0
18/05:30am 15.8 13.8 10.3 70 2.9 WNW 11 20 6 11 1002.1 - 0.0
18/05:00am 16.0 14.1 11.8 76 2.3 W 13 20 7 11 1001.7 - 0.0
18/04:30am 16.3 13.6 11.7 74 2.5 NW 17 24 9 13 1001.5 - 0.0
18/04:00am 16.6 14.7 11.9 74 2.6 NW 13 20 7 11 1001.1 - 0.0
18/03:30am 17.2 15.0 12.1 72 2.8 WNW 15 20 8 11 1001.2 - 0.0
18/03:00am 17.4 15.7 12.5 73 2.7 WNW 13 20 7 11 1001.4 1001.3 0.0
18/02:30am 17.5 15.5 12.8 74 2.6 WNW 15 24 8 13 1001.4 - 0.0
18/02:00am 17.6 16.0 12.9 74 2.6 W 13 22 7 12 1001.2 - 0.0
18/01:30am 18.2 16.3 13.1 72 2.9 W 15 24 8 13 1001.3 - 0.0
18/01:00am 18.5 16.9 13.8 74 2.7 WNW 15 22 8 12 1001.2 - 0.0
18/12:30am 18.3 16.3 14.0 76 2.5 WNW 17 28 9 15 1000.9 - 0.0
18/12:00am 18.5 16.0 14.2 76 2.5 W 20 33 11 18 1002.0 1001.9 0.0
 
Date/Time
EDT
Temp
°C
App
Temp
°C
Dew
Point
°C
Rel
Hum
%
Delta-T
°C
Wind Press
QNH
hPa
Press
MSL
hPa
Rain since
9am
mm
Dir  Spd
km/h
Gust
km/h
Spd
kts
Gust
kts
17/11:30pm 18.6 16.3 14.1 75 2.6 W 19 35 10 19 1002.5 - 0.0
17/11:00pm 18.7 16.3 13.8 73 2.8 W 19 33 10 18 1002.9 - 0.0
17/10:30pm 18.9 17.2 13.7 72 3.0 W 15 30 8 16 1003.6 - 0.0
17/10:00pm 19.6 17.8 13.3 67 3.6 WSW 15 33 8 18 1003.2 - 0.0
17/09:30pm 20.0 17.2 12.7 63 4.1 NW 19 28 10 15 1003.4 - 0.0
17/09:00pm 20.0 19.2 13.0 64 4.0 WSW 9 17 5 9 1003.4 1003.3 0.0
17/08:30pm 21.1 20.1 12.3 57 5.0 WNW 9 17 5 9 1003.1 - 0.0
17/08:00pm 19.1 19.9 13.7 71 3.1 SE 2 7 1 4 1003.0 - 0.0
17/07:30pm 20.0 21.0 14.4 70 3.3 S 2 9 1 5 1002.7 - 0.0
17/07:00pm 20.8 21.2 13.7 64 4.1 E 4 11 2 6 1002.5 - 0.0
17/06:30pm 23.7 21.8 10.4 43 7.3 WNW 11 19 6 10 1002.3 - 0.0
17/06:00pm 24.3 20.5 9.1 38 8.3 W 19 32 10 17 1002.2 1002.1 0.0
17/05:30pm 24.6 21.1 10.1 40 8.0 WNW 19 32 10 17 1002.1 - 0.0
17/05:00pm 25.0 21.5 10.1 39 8.2 WNW 19 33 10 18 1002.0 - 0.0
17/04:30pm 26.0 23.0 9.4 35 9.1 W 15 26 8 14 1002.0 - 0.0
17/04:00pm 25.6 20.6 9.4 36 8.9 NW 26 43 14 23 1002.2 - 0.0
17/03:30pm 26.1 21.8 9.4 35 9.2 W 22 41 12 22 1002.5 - 0.0
17/03:01pm 25.5 20.0 9.3 36 8.9 WNW 28 46 15 25 1002.5 - 0.0
17/03:00pm 25.4 20.3 9.3 36 8.8 WNW 26 46 14 25 1002.5 1002.4 0.0
17/02:42pm 25.6 20.3 9.8 37 8.7 NW 28 48 15 26 1002.7 - 0.0
17/02:30pm 25.3 20.7 9.6 37 8.6 WNW 24 43 13 23 1002.8 - 0.0
17/02:00pm 25.2 21.8 11.4 42 7.8 NW 20 30 11 16 1003.0 - 0.0
17/01:30pm 24.6 21.3 11.5 44 7.4 WNW 20 37 11 20 1003.3 - 0.0
17/01:00pm 24.5 21.1 11.1 43 7.5 WNW 20 33 11 18 1003.6 - 0.0
17/12:30pm 24.7 21.2 10.2 40 8.0 W 19 33 10 18 1003.6 - 0.0
17/12:00pm 26.1 22.4 9.4 35 9.2 W 19 48 10 26 1003.9 1003.8 0.0
17/11:30am 25.5 22.5 10.5 39 8.4 W 17 26 9 14 1004.1 - 0.0
17/11:00am 22.6 20.1 11.0 48 6.4 W 15 24 8 13 1004.4 - 0.0
17/10:30am 21.6 19.4 10.7 50 6.0 W 13 28 7 15 1005.0 - 0.0
17/10:00am 21.0 17.5 10.2 50 5.9 W 19 30 10 16 1005.3 - 0.0
17/09:30am 19.7 16.9 10.1 54 5.2 W 15 28 8 15 1005.4 - 0.0
17/09:00am 19.8 16.5 9.7 52 5.4 W 17 28 9 15 1005.6 1005.5 0.0
17/08:30am 18.9 15.4 8.8 52 5.3 W 17 28 9 15 1005.8 - 0.0
17/08:00am 18.4 15.1 9.7 57 4.6 W 17 30 9 16 1005.8 - 0.0
17/07:30am 18.2 13.8 9.0 55 4.8 W 22 44 12 24 1005.5 - 0.0
17/07:00am 17.3 13.7 10.4 64 3.7 W 20 35 11 19 1005.4 - 0.0
17/06:30am 16.8 13.3 10.2 65 3.5 W 19 37 10 20 1005.4 - 0.0
17/06:00am 16.5 13.3 9.9 65 3.5 W 17 26 9 14 1005.4 1005.3 0.0
17/05:30am 16.2 13.8 10.1 67 3.2 WSW 13 28 7 15 1005.6 - 0.0
17/05:00am 15.8 13.4 10.1 69 3.0 W 13 24 7 13 1005.5 - 0.0
17/04:30am 15.2 13.1 9.8 70 2.8 WSW 11 20 6 11 1005.7 - 0.0
17/04:00am 15.4 11.8 10.0 70 2.8 NW 19 26 10 14 1005.7 - 0.0
17/03:30am 16.0 12.5 10.1 68 3.1 NNW 19 30 10 16 1005.6 - 0.0
17/03:00am 16.3 13.1 9.9 66 3.4 NW 17 20 9 11 1005.7 1005.6 0.0
17/02:30am 17.0 14.4 9.2 60 4.1 NW 13 19 7 10 1006.0 - 0.0
17/02:00am 17.1 15.1 10.0 63 3.8 NW 11 17 6 9 1006.5 - 0.0
17/01:30am 17.1 14.6 10.9 67 3.3 NW 15 20 8 11 1006.6 - 0.0
17/01:00am 17.1 14.9 10.7 66 3.4 NW 13 19 7 10 1006.9 - 0.0
17/12:30am 16.9 14.4 11.0 68 3.2 WNW 15 22 8 12 1007.1 - 0.0
17/12:00am 17.1 14.8 11.6 70 3.0 WNW 15 24 8 13 1007.4 1007.3 0.0

Other Formats:

Comma delimited format used in spreadsheet applications
http://www.bom.gov.au/fwo/IDT60801/IDT60801.95981.axf

JavaScript Object Notation format (JSON) in row-major order
http://www.bom.gov.au/fwo/IDT60801/IDT60801.95981.json